createdAt,value
2018-02-10T04:32:35.032Z,88.50
2018-02-10T04:35:08.773Z,88.50
2018-02-10T04:37:42.544Z,88.60
2018-02-10T04:40:17.238Z,87.60
2018-02-10T04:42:51.782Z,87.90
2018-02-10T04:45:26.515Z,88.10
2018-02-10T04:48:01.036Z,87.90
2018-02-10T04:50:35.458Z,87.30
2018-02-10T04:53:09.159Z,87.30
2018-02-10T04:55:43.796Z,87.60
2018-02-10T04:58:36.563Z,87.70
2018-02-10T05:01:11.460Z,87.20
2018-02-10T05:03:45.206Z,87.20
2018-02-10T05:06:19.059Z,88.10
2018-02-10T05:08:52.890Z,87.50
2018-02-10T05:11:28.000Z,87.20
2018-02-10T05:14:01.900Z,86.80
2018-02-10T05:16:36.464Z,87.00
2018-02-10T05:19:10.149Z,87.00
2018-02-10T05:21:43.920Z,86.30
2018-02-10T05:24:17.735Z,86.30
2018-02-10T05:26:51.570Z,86.40
2018-02-10T05:29:25.357Z,86.40
2018-02-10T05:31:59.297Z,86.40
2018-02-10T05:34:33.043Z,85.30
2018-02-10T05:37:06.907Z,85.00
2018-02-10T05:39:43.781Z,85.10
2018-02-10T05:42:18.204Z,86.20
2018-02-10T05:44:52.839Z,86.40
2018-02-10T05:47:27.438Z,86.70
2018-02-10T05:50:02.049Z,86.80
2018-02-10T05:52:35.930Z,86.80
2018-02-10T05:55:09.768Z,86.90
2018-02-10T05:57:43.491Z,86.70
2018-02-10T06:00:17.313Z,87.20
2018-02-10T06:02:51.289Z,87.30
2018-02-10T06:05:25.069Z,87.60
2018-02-10T06:07:59.652Z,87.50
2018-02-10T06:10:33.424Z,87.50
2018-02-10T06:13:07.283Z,88.10
2018-02-10T06:15:41.064Z,87.80
2018-02-10T06:18:15.013Z,88.20
2018-02-10T06:20:48.854Z,88.30
2018-02-10T06:23:22.756Z,88.50
2018-02-10T06:25:57.278Z,88.10
2018-02-10T06:28:31.051Z,88.10
2018-02-10T06:31:04.784Z,88.80
2018-02-10T06:33:38.487Z,88.50
2018-02-10T06:36:12.429Z,88.00
2018-02-10T06:38:46.206Z,88.10
2018-02-10T06:41:20.057Z,88.10
2018-02-10T06:43:54.163Z,88.20
2018-02-10T06:46:28.663Z,87.80
2018-02-10T06:49:02.423Z,87.90
2018-02-10T06:51:36.205Z,87.80
2018-02-10T06:54:10.216Z,87.50
2018-02-10T06:56:44.016Z,87.40
2018-02-10T06:59:19.650Z,87.00
2018-02-10T07:01:53.623Z,86.90
2018-02-10T07:04:28.290Z,86.80
2018-02-10T07:07:02.003Z,87.00
2018-02-10T07:09:36.799Z,86.40
2018-02-10T07:12:10.542Z,86.40
2018-02-10T07:14:44.476Z,86.80
2018-02-10T07:17:18.247Z,86.90
2018-02-10T07:19:51.936Z,87.20
2018-02-10T07:22:26.501Z,87.50
2018-02-10T07:25:00.456Z,87.60
2018-02-10T07:27:34.360Z,87.20
2018-02-10T07:30:08.916Z,87.10
2018-02-10T07:32:43.403Z,87.10
2018-02-10T07:35:17.181Z,87.10
2018-02-10T07:37:51.023Z,87.50
2018-02-10T07:40:24.795Z,87.60
2018-02-10T07:42:58.641Z,88.30
2018-02-10T07:45:32.523Z,88.20
2018-02-10T07:48:06.322Z,88.90
2018-02-10T07:50:40.158Z,89.30
2018-02-10T07:53:14.025Z,89.10
2018-02-10T07:55:47.908Z,89.20
2018-02-10T07:58:22.430Z,88.90
2018-02-10T08:00:56.921Z,89.10
2018-02-10T08:03:31.784Z,90.30
2018-02-10T08:06:05.637Z,90.20
2018-02-10T08:08:39.416Z,90.40
2018-02-10T08:11:13.336Z,90.60
2018-02-10T08:13:48.096Z,91.00
2018-02-10T08:16:21.996Z,91.00
2018-02-10T08:18:55.775Z,91.00
2018-02-10T08:21:29.479Z,90.70
2018-02-10T08:24:03.677Z,90.90
2018-02-10T08:26:38.425Z,90.40
2018-02-10T08:29:12.115Z,90.40
2018-02-10T08:31:46.678Z,90.20
2018-02-10T08:34:21.232Z,90.40
2018-02-10T08:36:54.948Z,90.40
2018-02-10T08:39:28.760Z,90.60
2018-02-10T08:42:02.444Z,90.40
2018-02-10T08:44:36.566Z,90.50
2018-02-10T08:47:11.200Z,90.80
2018-02-10T08:49:44.979Z,90.80
2018-02-10T09:05:07.360Z,90.10
2018-02-10T09:07:41.136Z,90.30
2018-02-10T09:10:14.919Z,90.10
2018-02-10T09:12:48.633Z,89.80
2018-02-10T09:15:23.359Z,90.20
2018-02-10T09:17:57.356Z,90.00
2018-02-10T09:20:31.275Z,89.80
2018-02-10T09:23:05.780Z,89.80
2018-02-10T09:25:39.543Z,89.70
2018-02-10T09:28:13.321Z,89.40
2018-02-10T09:30:47.938Z,89.60
2018-02-10T09:33:23.314Z,89.00
2018-02-10T09:35:57.942Z,89.70
2018-02-10T09:38:31.893Z,89.70
2018-02-10T09:41:05.756Z,89.10
2018-02-10T09:43:40.288Z,90.10
2018-02-10T09:46:14.244Z,90.00
2018-02-10T09:48:48.041Z,90.00
2018-02-10T09:51:21.781Z,89.20
2018-02-10T09:53:55.555Z,89.70
2018-02-10T09:56:30.526Z,90.40
2018-02-10T09:59:04.418Z,90.40
2018-02-10T10:01:39.243Z,90.30
2018-02-10T10:04:12.932Z,90.30
2018-02-10T10:06:46.771Z,90.30
2018-02-10T10:09:21.460Z,90.20
2018-02-10T10:11:55.176Z,90.10
2018-02-10T10:14:29.918Z,90.30
2018-02-10T10:17:04.543Z,90.30
2018-02-10T10:19:38.185Z,90.30
2018-02-10T10:22:12.092Z,90.20
2018-02-10T10:24:45.920Z,90.00
2018-02-10T10:27:20.556Z,89.60
2018-02-10T10:29:55.095Z,89.30
2018-02-10T10:32:28.823Z,89.30
2018-02-10T10:35:03.362Z,88.40
2018-02-10T10:37:37.349Z,88.40
2018-02-10T10:40:11.150Z,87.90
2018-02-10T10:42:44.955Z,86.90
2018-02-10T10:45:18.848Z,86.40
2018-02-10T10:47:52.709Z,85.80
2018-02-10T10:50:27.267Z,84.80
2018-02-10T10:53:01.017Z,84.80
2018-02-10T10:55:34.857Z,83.80
2018-02-10T10:58:08.513Z,83.20
2018-02-10T11:00:42.197Z,84.60
2018-02-10T11:03:16.054Z,84.40
2018-02-10T11:05:49.908Z,85.50
2018-02-10T11:08:24.576Z,85.40
2018-02-10T11:10:58.433Z,85.20
2018-02-10T11:13:32.286Z,85.00
2018-02-10T11:16:05.983Z,85.30
2018-02-10T11:18:39.619Z,84.50
2018-02-10T11:21:14.184Z,85.40
2018-02-10T11:23:48.697Z,85.20
2018-02-10T11:26:22.445Z,85.20
2018-02-10T11:28:56.338Z,86.00
2018-02-10T11:31:31.067Z,85.00
2018-02-10T11:34:05.657Z,85.70
2018-02-10T11:36:41.102Z,84.80
2018-02-10T11:39:14.832Z,84.80
2018-02-10T11:41:49.461Z,85.40
2018-02-10T11:44:23.287Z,85.40
2018-02-10T11:46:57.066Z,85.30
2018-02-10T11:49:31.619Z,85.50
2018-02-10T11:52:05.596Z,85.50
2018-02-10T11:54:39.343Z,85.20
2018-02-10T11:57:13.797Z,85.00
2018-02-10T11:59:48.714Z,85.00
2018-02-10T12:02:23.474Z,84.20
2018-02-10T12:04:58.165Z,83.40
2018-02-10T12:07:33.582Z,83.00
2018-02-10T12:10:07.654Z,82.90
2018-02-10T12:12:41.661Z,83.80
2018-02-10T12:15:16.220Z,85.70
2018-02-10T12:17:50.817Z,86.10
2018-02-10T12:20:25.451Z,86.30
2018-02-10T12:22:59.321Z,86.30
2018-02-10T12:25:33.888Z,85.70
2018-02-10T12:28:08.634Z,85.10
2018-02-10T12:30:42.400Z,85.40
2018-02-10T12:33:16.283Z,85.40
2018-02-10T12:35:50.168Z,84.50
2018-02-10T12:38:23.988Z,85.40
2018-02-10T12:40:57.748Z,85.30
2018-02-10T12:43:31.560Z,85.00
2018-02-10T12:46:05.339Z,84.90
2018-02-10T12:48:44.987Z,84.40
2018-02-10T12:51:18.813Z,84.50
2018-02-10T12:53:53.424Z,83.50
2018-02-10T12:56:27.189Z,83.40
2018-02-10T12:59:01.134Z,82.10
2018-02-10T13:01:35.762Z,83.50
2018-02-10T13:04:09.555Z,83.40
2018-02-10T13:06:44.096Z,82.90
2018-02-10T13:09:17.944Z,82.90
2018-02-10T13:11:51.735Z,83.70
2018-02-10T13:14:26.342Z,82.80
2018-02-10T13:17:00.848Z,83.50
2018-02-10T13:19:34.608Z,83.30
2018-02-10T13:22:08.446Z,83.80
2018-02-10T13:24:42.263Z,83.60
2018-02-10T13:27:16.044Z,83.30
2018-02-10T13:29:49.900Z,82.80
2018-02-10T13:32:23.808Z,82.40
2018-02-10T13:34:58.439Z,82.90
2018-02-10T13:37:32.142Z,82.70
2018-02-10T13:40:06.002Z,83.00
2018-02-10T13:42:40.558Z,83.40
2018-02-10T13:45:14.316Z,82.70
2018-02-10T13:47:48.128Z,82.80
2018-02-10T13:50:22.020Z,83.20
2018-02-10T13:52:56.625Z,82.50
2018-02-10T13:55:31.346Z,81.70
2018-02-10T13:58:05.356Z,81.70
2018-02-10T14:00:39.896Z,81.90
2018-02-10T14:03:13.968Z,81.90
2018-02-10T14:05:47.715Z,81.40
2018-02-10T14:08:22.280Z,82.90
2018-02-10T14:10:56.223Z,82.80
2018-02-10T14:13:29.988Z,83.60
2018-02-10T14:16:04.873Z,85.00
2018-02-10T14:18:38.740Z,85.00
2018-02-10T14:21:13.299Z,86.00
2018-02-10T14:23:46.895Z,85.90
2018-02-10T14:26:20.762Z,85.30
2018-02-10T14:28:55.311Z,87.20
2018-02-10T14:31:30.021Z,87.10
2018-02-10T14:34:03.796Z,87.00
2018-02-10T14:36:37.584Z,88.50
2018-02-10T14:39:12.172Z,89.60
2018-02-10T14:41:45.928Z,89.60
2018-02-10T14:44:19.712Z,89.90
2018-02-10T14:46:53.354Z,89.80
2018-02-10T14:49:27.144Z,90.10
2018-02-10T14:52:00.927Z,90.30
2018-02-10T14:54:34.749Z,90.30
2018-02-10T14:57:08.497Z,90.70
2018-02-10T14:59:44.183Z,91.00
2018-02-10T15:02:18.040Z,90.90
2018-02-10T15:04:52.703Z,90.90
2018-02-10T15:07:26.515Z,90.90
2018-02-10T15:10:00.393Z,90.70
2018-02-10T15:12:34.416Z,90.90
2018-02-10T15:15:08.348Z,91.10
2018-02-10T15:17:42.157Z,91.20
2018-02-10T15:20:15.997Z,91.30
2018-02-10T15:22:49.835Z,91.00
2018-02-10T15:25:23.675Z,90.70
2018-02-10T15:27:58.214Z,90.60
2018-02-10T15:30:44.073Z,90.60
2018-02-10T15:46:47.278Z,90.00
2018-02-10T15:49:21.385Z,90.30
2018-02-10T15:51:55.068Z,90.30
2018-02-10T15:54:28.811Z,90.40
2018-02-10T15:57:02.588Z,90.40
2018-02-10T15:59:37.217Z,90.40
2018-02-10T16:02:11.077Z,90.30
2018-02-10T16:04:44.972Z,90.30
2018-02-10T16:07:18.754Z,90.40
2018-02-10T16:09:52.579Z,90.50
2018-02-10T16:12:26.408Z,90.70
2018-02-10T16:15:00.276Z,90.70
2018-02-10T16:17:34.070Z,90.40
2018-02-10T16:20:08.684Z,90.80
2018-02-10T16:22:42.414Z,90.80
2018-02-10T16:25:17.351Z,90.80
2018-02-10T16:27:51.210Z,90.80
2018-02-10T16:30:25.172Z,90.60
2018-02-10T16:32:58.944Z,90.80
2018-02-10T16:35:33.484Z,90.60
2018-02-10T16:38:07.356Z,90.90
2018-02-10T16:40:41.919Z,90.90
2018-02-10T16:43:15.863Z,90.90
2018-02-10T16:45:49.752Z,90.80
2018-02-10T16:48:23.663Z,91.10
2018-02-10T16:50:58.362Z,90.90
2018-02-10T16:53:32.264Z,90.90
2018-02-10T16:56:06.010Z,90.90
2018-02-10T16:58:39.700Z,90.90
2018-02-10T17:01:14.300Z,90.70
2018-02-10T17:03:48.100Z,90.70
2018-02-10T17:06:22.721Z,90.70
2018-02-10T17:08:56.726Z,90.60
2018-02-10T17:11:30.543Z,90.70
2018-02-10T17:14:05.040Z,90.70
2018-02-10T17:16:38.848Z,90.70
2018-02-10T17:19:14.108Z,90.70
2018-02-10T17:21:47.999Z,90.70
2018-02-10T17:24:22.844Z,90.50
2018-02-10T17:26:56.629Z,90.50
2018-02-10T17:29:31.032Z,90.70
2018-02-10T17:32:05.002Z,90.70
2018-02-10T17:34:38.863Z,90.60
2018-02-10T17:37:12.593Z,90.60
2018-02-10T17:39:46.393Z,90.50
2018-02-10T17:42:20.245Z,90.20
2018-02-10T17:44:53.873Z,90.40
2018-02-10T17:47:28.752Z,90.40
2018-02-10T17:50:02.438Z,90.30
2018-02-10T17:52:36.219Z,90.40
2018-02-10T17:55:09.928Z,90.30
2018-02-10T17:57:44.449Z,90.20
2018-02-10T18:00:18.273Z,90.20
2018-02-10T18:02:52.167Z,90.20
2018-02-10T18:05:25.902Z,90.10
2018-02-10T18:07:59.724Z,90.10
2018-02-10T18:10:33.548Z,90.20
2018-02-10T18:13:07.351Z,90.00
2018-02-10T18:15:41.125Z,90.00
2018-02-10T18:18:15.312Z,89.70
2018-02-10T18:20:49.018Z,90.00
2018-02-10T18:23:22.744Z,89.90
2018-02-10T18:25:56.592Z,90.00
2018-02-10T18:28:30.337Z,90.00
2018-02-10T18:31:04.163Z,88.90
2018-02-10T18:33:38.048Z,89.20
2018-02-10T18:36:11.928Z,89.00
2018-02-10T18:38:45.781Z,89.00
2018-02-10T18:41:19.547Z,88.50
2018-02-10T18:43:53.598Z,88.30
2018-02-10T18:46:27.461Z,88.80
2018-02-10T18:49:01.629Z,88.90
2018-02-10T18:51:36.121Z,88.90
2018-02-10T18:54:09.997Z,88.90
2018-02-10T18:56:44.550Z,89.00
2018-02-10T18:59:19.202Z,88.70
2018-02-10T19:01:52.977Z,88.70
2018-02-10T19:04:27.131Z,88.60
2018-02-10T19:07:01.726Z,89.20
2018-02-10T19:09:35.496Z,89.20
2018-02-10T19:12:10.045Z,89.60
2018-02-10T19:14:43.904Z,89.50
2018-02-10T19:17:17.610Z,89.60
2018-02-10T19:19:52.256Z,89.20
2018-02-10T19:22:26.912Z,89.20
2018-02-10T19:25:01.065Z,89.30
2018-02-10T19:27:34.873Z,89.80
2018-02-10T19:30:08.669Z,89.60
2018-02-10T19:32:42.491Z,89.50
2018-02-10T19:35:17.933Z,89.50
2018-02-10T19:37:52.535Z,89.70
2018-02-10T19:40:26.240Z,89.70
2018-02-10T19:43:00.863Z,90.10
2018-02-10T19:45:34.691Z,90.10
2018-02-10T19:48:08.496Z,90.30
2018-02-10T19:50:43.106Z,90.20
2018-02-10T19:53:17.603Z,90.20
2018-02-10T19:55:51.757Z,90.20
2018-02-10T19:58:26.435Z,90.10
2018-02-10T20:01:00.383Z,90.10
2018-02-10T20:03:34.876Z,90.20
2018-02-10T20:06:08.654Z,90.20
2018-02-10T20:08:42.416Z,90.50
2018-02-10T20:11:16.740Z,90.10
2018-02-10T20:13:50.527Z,90.20
2018-02-10T20:16:24.284Z,90.20
2018-02-10T20:18:58.060Z,90.20
2018-02-10T20:21:32.665Z,90.50
2018-02-10T20:24:06.468Z,90.50
2018-02-10T20:26:40.342Z,90.40
2018-02-10T20:29:14.117Z,90.30
2018-02-10T20:31:48.328Z,90.30
2018-02-10T20:34:22.013Z,90.20
2018-02-10T20:36:56.238Z,90.10
2018-02-10T20:39:30.813Z,90.00
2018-02-10T20:42:04.939Z,89.90
2018-02-10T20:44:38.784Z,88.00
2018-02-10T20:47:12.574Z,87.60
2018-02-10T20:49:46.403Z,87.70
2018-02-10T20:52:20.175Z,87.20
2018-02-10T20:54:54.011Z,86.90
2018-02-10T20:57:27.940Z,86.20
2018-02-10T21:00:01.661Z,85.90
2018-02-10T21:02:36.517Z,85.80
2018-02-10T21:05:10.251Z,85.80
2018-02-10T21:07:45.595Z,85.60
2018-02-10T21:10:19.401Z,85.60
2018-02-10T21:12:53.184Z,85.30
2018-02-10T21:15:26.978Z,84.30
2018-02-10T21:18:01.493Z,84.70
2018-02-10T21:20:35.545Z,84.60
2018-02-10T21:23:09.567Z,85.00
2018-02-10T21:25:43.354Z,84.90
2018-02-10T21:28:17.203Z,85.10
2018-02-10T21:30:50.971Z,84.30
2018-02-10T21:33:24.796Z,84.10
2018-02-10T21:35:58.580Z,83.70
2018-02-10T21:38:32.702Z,83.90
2018-02-10T21:41:08.003Z,84.30
2018-02-10T21:43:41.831Z,84.30
2018-02-10T21:46:15.649Z,84.30
2018-02-10T21:48:49.494Z,84.70
2018-02-10T21:51:24.050Z,84.90
2018-02-10T21:53:59.005Z,84.80
2018-02-10T21:56:32.862Z,84.70
2018-02-10T21:59:06.832Z,84.80
